createdAt,value
2022-12-07T00:01:16.849Z,30.05
2022-12-07T00:03:44.855Z,32.75
2022-12-07T00:06:13.951Z,34.22
2022-12-07T00:08:40.568Z,38.78
2022-12-07T00:11:12.661Z,35.20
2022-12-07T00:13:39.748Z,39.58
2022-12-07T00:16:14.419Z,37.20
2022-12-07T00:18:41.715Z,40.65
2022-12-07T00:21:12.309Z,51.53
2022-12-07T00:23:39.788Z,48.17
2022-12-07T00:26:08.493Z,48.45
2022-12-07T00:28:35.335Z,51.03
2022-12-07T00:31:12.751Z,49.63
2022-12-07T00:33:39.373Z,55.78
2022-12-07T00:36:08.554Z,55.92
2022-12-07T00:38:36.892Z,56.60
2022-12-07T00:41:05.902Z,55.80
2022-12-07T00:43:32.404Z,53.15
2022-12-07T00:46:01.398Z,52.72
2022-12-07T00:48:27.860Z,57.25
2022-12-07T00:50:54.172Z,54.65
2022-12-07T00:53:20.601Z,55.55
2022-12-07T00:55:47.235Z,58.13
2022-12-07T00:58:14.056Z,59.15
2022-12-07T01:00:42.678Z,56.70
2022-12-07T01:03:11.355Z,57.70
2022-12-07T01:05:37.912Z,59.13
2022-12-07T01:08:04.773Z,55.55
2022-12-07T01:10:31.221Z,56.13
2022-12-07T01:12:57.570Z,52.00
2022-12-07T01:15:23.985Z,56.38
2022-12-07T01:17:50.414Z,49.78
2022-12-07T01:20:16.846Z,47.00
2022-12-07T01:22:44.862Z,45.60
2022-12-07T01:25:12.359Z,46.75
2022-12-07T01:27:38.854Z,44.97
2022-12-07T01:30:07.228Z,42.55
2022-12-07T01:32:34.775Z,45.22
2022-12-07T01:35:01.112Z,41.97
2022-12-07T01:37:27.432Z,44.15
2022-12-07T01:39:53.855Z,41.38
2022-12-07T01:42:20.358Z,40.35
2022-12-07T01:45:23.972Z,42.55
2022-12-07T01:47:58.362Z,41.05
2022-12-07T01:50:27.670Z,44.08
2022-12-07T01:52:57.077Z,40.85
2022-12-07T01:55:23.835Z,43.25
2022-12-07T01:57:52.993Z,41.00
2022-12-07T02:00:20.254Z,43.72
2022-12-07T02:02:56.787Z,38.63
2022-12-07T02:05:25.108Z,42.58
2022-12-07T02:07:53.928Z,38.20
2022-12-07T02:10:26.795Z,35.47
2022-12-07T02:12:56.874Z,37.45
2022-12-07T02:15:29.022Z,37.42
2022-12-07T02:18:08.469Z,37.25
2022-12-07T02:20:39.972Z,39.10
2022-12-07T02:23:18.521Z,38.28
2022-12-07T02:26:09.650Z,34.80
2022-12-07T02:28:45.259Z,36.97
2022-12-07T02:31:21.395Z,40.92
2022-12-07T02:33:55.538Z,36.08
2022-12-07T02:36:28.677Z,41.75
2022-12-07T02:39:08.100Z,40.90
2022-12-07T02:41:40.813Z,35.53
2022-12-07T02:44:21.172Z,36.67
2022-12-07T02:47:18.273Z,31.33
2022-12-07T02:49:45.173Z,35.42
2022-12-07T02:52:11.580Z,36.72
2022-12-07T02:54:38.006Z,31.55
2022-12-07T02:57:28.936Z,33.38
2022-12-07T03:00:08.614Z,33.00
2022-12-07T03:02:57.017Z,29.50
2022-12-07T03:05:31.791Z,29.75
2022-12-07T03:08:40.132Z,30.98
2022-12-07T03:11:11.550Z,30.88
2022-12-07T03:13:40.862Z,28.90
2022-12-07T03:16:10.183Z,30.17
2022-12-07T03:19:12.097Z,35.03
2022-12-07T03:21:42.611Z,34.95
2022-12-07T03:24:32.027Z,29.05
2022-12-07T03:27:07.265Z,34.78
2022-12-07T03:29:43.073Z,24.98
2022-12-07T03:32:23.070Z,29.13
2022-12-07T03:35:06.388Z,26.33
2022-12-07T03:37:44.334Z,28.77
2022-12-07T03:40:36.063Z,30.60
2022-12-07T03:43:04.913Z,26.98
2022-12-07T03:45:40.664Z,25.13
2022-12-07T03:48:26.360Z,30.10
2022-12-07T03:51:11.715Z,27.25
2022-12-07T03:53:47.696Z,28.35
2022-12-07T03:56:14.830Z,32.65
2022-12-07T03:58:42.555Z,23.25
2022-12-07T04:01:09.427Z,25.20
2022-12-07T04:03:35.752Z,25.70
2022-12-07T04:06:02.621Z,22.58
2022-12-07T04:08:28.961Z,26.60
2022-12-07T04:10:55.368Z,24.00
2022-12-07T04:13:21.688Z,22.92
2022-12-07T04:15:48.031Z,28.05
2022-12-07T04:18:14.444Z,28.85
2022-12-07T04:20:40.794Z,26.40
2022-12-07T04:23:07.137Z,27.88
2022-12-07T04:25:33.479Z,29.40
2022-12-07T04:27:59.796Z,24.30
2022-12-07T04:30:26.134Z,29.70
2022-12-07T04:32:52.440Z,22.98
2022-12-07T04:35:18.802Z,22.17
2022-12-07T04:37:45.160Z,29.45
2022-12-07T04:40:12.435Z,25.23
2022-12-07T04:42:39.216Z,25.27
2022-12-07T04:45:06.216Z,19.88
2022-12-07T04:47:32.617Z,27.13
2022-12-07T04:49:59.038Z,23.10
2022-12-07T04:52:25.467Z,24.23
2022-12-07T04:54:51.797Z,24.85
2022-12-07T04:57:18.105Z,21.52
2022-12-07T04:59:46.045Z,19.10
2022-12-07T05:02:13.013Z,19.85
2022-12-07T05:04:39.420Z,21.23
2022-12-07T05:07:05.708Z,19.75
2022-12-07T05:09:32.016Z,26.42
2022-12-07T05:11:58.348Z,21.23
2022-12-07T05:14:24.706Z,18.92
2022-12-07T05:16:51.919Z,17.42
2022-12-07T05:19:19.670Z,22.08
2022-12-07T05:21:46.465Z,17.73
2022-12-07T05:24:15.161Z,23.15
2022-12-07T05:26:42.226Z,20.30
2022-12-07T05:29:11.989Z,16.73
2022-12-07T05:31:38.345Z,23.88
2022-12-07T05:34:04.700Z,19.10
2022-12-07T05:36:31.066Z,19.67
2022-12-07T05:38:57.396Z,17.45
2022-12-07T05:41:23.786Z,20.20
2022-12-07T05:43:50.097Z,17.83
2022-12-07T05:46:16.461Z,14.07
2022-12-07T05:48:42.837Z,18.00
2022-12-07T05:51:09.171Z,18.67
2022-12-07T05:53:35.475Z,16.45
2022-12-07T05:56:01.811Z,18.85
2022-12-07T05:58:28.130Z,16.88
2022-12-07T06:00:57.985Z,17.67
2022-12-07T06:03:24.377Z,18.13
2022-12-07T06:05:50.815Z,18.88
2022-12-07T06:08:17.257Z,15.48
2022-12-07T06:10:43.690Z,16.42
2022-12-07T06:13:10.222Z,15.65
2022-12-07T06:15:37.710Z,14.77
2022-12-07T06:18:04.316Z,16.17
2022-12-07T06:20:30.674Z,14.90
2022-12-07T06:22:57.079Z,12.85
2022-12-07T06:25:23.426Z,15.63
2022-12-07T06:27:49.751Z,18.83
2022-12-07T06:30:16.280Z,20.23
2022-12-07T06:32:42.631Z,32.05
2022-12-07T06:35:09.043Z,25.77
2022-12-07T06:37:35.371Z,19.88
2022-12-07T06:40:02.215Z,13.88
2022-12-07T06:42:28.803Z,14.40
2022-12-07T06:44:55.135Z,18.38
2022-12-07T06:50:08.085Z,22.13
2022-12-07T06:52:35.080Z,16.48
2022-12-07T06:55:01.429Z,18.65
2022-12-07T06:57:27.797Z,16.33
2022-12-07T06:59:54.444Z,23.58
2022-12-07T07:02:20.809Z,16.35
2022-12-07T07:04:47.149Z,15.98
2022-12-07T07:07:13.491Z,18.38
2022-12-07T07:09:39.791Z,17.40
2022-12-07T07:12:06.298Z,21.40
2022-12-07T07:14:32.624Z,18.20
2022-12-07T07:16:59.012Z,18.77
2022-12-07T07:19:25.358Z,23.90
2022-12-07T07:21:51.714Z,20.10
2022-12-07T07:24:18.039Z,21.67
2022-12-07T07:26:44.338Z,26.58
2022-12-07T07:29:10.668Z,25.67
2022-12-07T07:31:36.974Z,17.83
2022-12-07T07:34:03.423Z,22.45
2022-12-07T07:36:29.766Z,21.08
2022-12-07T07:38:56.074Z,21.92
2022-12-07T07:41:22.410Z,16.90
2022-12-07T07:43:48.720Z,26.10
2022-12-07T07:46:15.124Z,23.67
2022-12-07T07:48:41.461Z,16.83
2022-12-07T07:51:08.753Z,16.63
2022-12-07T07:53:35.268Z,17.30
2022-12-07T07:56:01.638Z,20.17
2022-12-07T07:58:28.325Z,13.70
2022-12-07T08:00:54.637Z,15.60
2022-12-07T08:03:20.976Z,12.45
2022-12-07T08:05:47.310Z,19.63
2022-12-07T08:08:13.739Z,27.02
2022-12-07T08:10:40.207Z,16.13
2022-12-07T08:13:06.526Z,17.92
2022-12-07T08:15:32.942Z,14.68
2022-12-07T08:17:59.824Z,13.93
2022-12-07T08:20:26.780Z,14.68
2022-12-07T08:22:53.148Z,14.40
2022-12-07T08:25:19.948Z,13.23
2022-12-07T08:27:46.299Z,12.60
2022-12-07T08:30:12.842Z,13.90
2022-12-07T08:32:39.730Z,15.40
2022-12-07T08:35:06.615Z,13.65
2022-12-07T08:37:33.021Z,12.95
2022-12-07T08:39:59.802Z,11.20
2022-12-07T08:42:26.410Z,15.75
2022-12-07T08:44:52.707Z,11.60
2022-12-07T08:47:19.607Z,11.30
2022-12-07T08:49:48.626Z,14.75
2022-12-07T08:52:15.066Z,16.92
2022-12-07T08:54:42.713Z,13.75
2022-12-07T08:57:11.305Z,14.10
2022-12-07T08:59:38.402Z,17.23
2022-12-07T09:02:06.360Z,13.27
2022-12-07T09:04:32.831Z,19.70
2022-12-07T09:07:00.207Z,12.70
2022-12-07T09:09:26.578Z,11.55
2022-12-07T09:11:52.933Z,11.95
2022-12-07T09:14:19.296Z,8.65
2022-12-07T09:16:45.635Z,10.13
2022-12-07T09:19:12.096Z,13.73
2022-12-07T09:21:38.508Z,13.68
2022-12-07T09:24:05.054Z,9.98
2022-12-07T09:26:31.346Z,13.80
2022-12-07T09:28:57.673Z,11.57
2022-12-07T09:31:25.592Z,11.57
2022-12-07T09:34:00.660Z,10.30
2022-12-07T09:36:28.550Z,10.13
2022-12-07T09:38:55.009Z,13.63
2022-12-07T09:41:22.332Z,9.95
2022-12-07T09:43:48.726Z,11.90
2022-12-07T09:46:18.938Z,10.93
2022-12-07T09:48:46.162Z,10.27
2022-12-07T09:51:22.715Z,12.43
2022-12-07T09:53:51.258Z,15.82
2022-12-07T09:56:20.067Z,12.07
2022-12-07T09:58:47.479Z,9.45
2022-12-07T10:01:20.789Z,9.30
2022-12-07T10:03:51.248Z,9.50
2022-12-07T10:06:17.808Z,9.93
2022-12-07T10:08:44.175Z,13.45
2022-12-07T10:11:11.740Z,11.40
2022-12-07T10:13:47.165Z,17.45
2022-12-07T10:16:25.533Z,9.15
2022-12-07T10:18:52.965Z,16.98
2022-12-07T10:21:20.464Z,11.05
2022-12-07T10:24:25.515Z,12.10
2022-12-07T10:26:54.262Z,13.27
2022-12-07T10:29:39.128Z,12.40
2022-12-07T10:32:07.021Z,18.40
2022-12-07T10:34:42.733Z,9.60
2022-12-07T10:37:13.598Z,11.07
2022-12-07T10:39:44.649Z,8.68
2022-12-07T10:42:21.260Z,12.32
2022-12-07T10:44:49.990Z,9.32
2022-12-07T10:47:25.396Z,9.82
2022-12-07T10:50:00.457Z,10.10
2022-12-07T10:52:44.522Z,9.02
2022-12-07T10:55:20.817Z,11.18
2022-12-07T10:58:10.419Z,10.90
2022-12-07T11:00:50.643Z,12.18
2022-12-07T11:03:26.164Z,11.98
2022-12-07T11:06:02.444Z,10.98
2022-12-07T11:08:44.749Z,9.80
2022-12-07T11:11:15.133Z,11.95
2022-12-07T11:13:53.949Z,12.50
2022-12-07T11:16:49.479Z,11.32
2022-12-07T11:22:01.763Z,12.07
2022-12-07T11:24:49.368Z,9.70
2022-12-07T11:27:24.531Z,12.73
2022-12-07T11:30:09.626Z,17.40
2022-12-07T11:32:44.926Z,9.40
2022-12-07T11:36:02.881Z,10.18
2022-12-07T11:38:44.187Z,11.68
2022-12-07T11:41:10.990Z,9.90
2022-12-07T11:43:37.541Z,10.90
2022-12-07T11:46:09.850Z,10.30
2022-12-07T11:48:46.167Z,11.57
2022-12-07T11:51:14.021Z,8.85
2022-12-07T11:54:04.080Z,8.27
2022-12-07T11:56:31.446Z,8.25
2022-12-07T11:59:03.051Z,10.50
2022-12-07T12:01:32.340Z,13.32
2022-12-07T12:04:10.835Z,9.27
2022-12-07T12:06:38.681Z,9.57
2022-12-07T12:09:41.383Z,11.40
2022-12-07T12:15:18.495Z,10.38
2022-12-07T12:18:06.105Z,12.60
2022-12-07T12:20:48.245Z,6.95
2022-12-07T12:23:29.278Z,17.77
2022-12-07T12:25:59.351Z,9.05
2022-12-07T12:28:59.154Z,15.32
2022-12-07T12:31:28.304Z,10.18
2022-12-07T12:33:57.530Z,7.28
2022-12-07T12:36:27.512Z,10.35
2022-12-07T12:38:59.857Z,11.85
2022-12-07T12:41:38.435Z,11.35
2022-12-07T12:44:16.990Z,10.23
2022-12-07T12:46:52.462Z,9.85
2022-12-07T12:49:18.788Z,11.48
2022-12-07T12:52:23.300Z,9.73
2022-12-07T12:55:13.301Z,11.40
2022-12-07T12:57:39.690Z,7.65
2022-12-07T13:00:19.452Z,7.82
2022-12-07T13:02:54.183Z,9.63
2022-12-07T13:05:27.777Z,9.75
2022-12-07T13:07:58.871Z,9.20
2022-12-07T13:10:28.119Z,7.78
2022-12-07T13:13:01.801Z,8.20
2022-12-07T13:15:33.891Z,12.75
2022-12-07T13:18:02.218Z,17.90
2022-12-07T13:20:45.210Z,15.75
2022-12-07T13:23:13.014Z,8.23
2022-12-07T13:26:05.753Z,6.13
2022-12-07T13:28:40.310Z,9.43
2022-12-07T13:31:33.309Z,13.55
2022-12-07T13:34:00.461Z,5.55
2022-12-07T13:36:39.661Z,8.13
2022-12-07T13:39:35.657Z,9.25
2022-12-07T13:42:29.167Z,5.65
2022-12-07T13:44:57.634Z,12.82
2022-12-07T13:47:44.149Z,13.40
2022-12-07T13:50:31.933Z,8.75
2022-12-07T13:53:02.479Z,8.15
2022-12-07T13:55:30.081Z,8.18
2022-12-07T13:57:57.042Z,7.65
2022-12-07T14:00:29.525Z,8.68
2022-12-07T14:03:20.822Z,9.88
2022-12-07T14:05:47.177Z,13.02
2022-12-07T14:08:13.459Z,11.13
2022-12-07T14:10:48.778Z,8.82
2022-12-07T14:13:40.951Z,12.73
2022-12-07T14:16:32.373Z,7.65
2022-12-07T14:19:01.121Z,8.90
2022-12-07T14:21:30.051Z,11.50
2022-12-07T14:24:21.045Z,8.48
2022-12-07T14:26:51.764Z,10.95
2022-12-07T14:29:32.310Z,13.00
2022-12-07T14:32:11.295Z,8.25
2022-12-07T14:34:37.629Z,10.93
2022-12-07T14:37:07.753Z,7.43
2022-12-07T14:39:34.061Z,9.68
2022-12-07T14:42:00.417Z,21.98
2022-12-07T14:44:30.781Z,27.45
2022-12-07T14:49:48.114Z,13.05
2022-12-07T14:55:19.853Z,12.50
2022-12-07T14:57:46.196Z,12.07
2022-12-07T15:00:16.565Z,10.68
2022-12-07T15:02:42.880Z,11.82
2022-12-07T15:05:15.468Z,13.05
2022-12-07T15:07:42.880Z,8.70
2022-12-07T15:10:31.403Z,11.30
2022-12-07T15:13:02.321Z,12.23
2022-12-07T15:15:32.019Z,15.93
2022-12-07T15:17:58.512Z,12.90
2022-12-07T15:20:24.887Z,9.48
2022-12-07T15:22:51.204Z,16.00
2022-12-07T15:25:17.684Z,10.88
2022-12-07T15:27:44.053Z,14.32
2022-12-07T15:30:10.662Z,17.70
2022-12-07T15:32:37.079Z,13.57
2022-12-07T15:35:04.127Z,15.35
2022-12-07T15:37:30.730Z,13.85
2022-12-07T15:39:57.067Z,17.52
2022-12-07T15:42:23.379Z,13.57
2022-12-07T15:44:49.742Z,13.07
2022-12-07T15:47:16.071Z,10.80
2022-12-07T15:49:42.418Z,12.75
2022-12-07T15:52:08.764Z,18.23
2022-12-07T15:54:35.279Z,13.27
2022-12-07T15:57:01.968Z,10.77
2022-12-07T15:59:29.286Z,8.52
2022-12-07T16:01:56.695Z,15.00
2022-12-07T16:04:23.398Z,11.63
2022-12-07T16:06:49.786Z,8.48
2022-12-07T16:09:16.116Z,7.40
2022-12-07T16:11:42.446Z,3.33
2022-12-07T16:14:08.793Z,4.60
2022-12-07T16:16:35.193Z,5.07
2022-12-07T16:19:01.600Z,4.75
2022-12-07T16:21:27.928Z,5.72
2022-12-07T16:23:54.482Z,6.25
2022-12-07T16:26:22.654Z,3.33
2022-12-07T16:28:50.944Z,6.28
2022-12-07T16:31:19.382Z,2.88
2022-12-07T16:33:46.786Z,1.90
2022-12-07T16:36:15.258Z,3.03
2022-12-07T16:38:41.639Z,6.20
2022-12-07T16:41:08.359Z,7.13
2022-12-07T16:43:35.215Z,5.60
2022-12-07T16:46:01.630Z,6.63
2022-12-07T16:48:28.126Z,4.32
2022-12-07T16:50:54.474Z,4.43
2022-12-07T16:53:22.260Z,5.60
2022-12-07T16:55:48.851Z,11.35
2022-12-07T16:58:18.305Z,6.05
2022-12-07T17:00:46.108Z,4.72
2022-12-07T17:03:17.576Z,7.03
2022-12-07T17:05:47.817Z,6.47
2022-12-07T17:08:14.853Z,12.80
2022-12-07T17:10:43.781Z,15.52
2022-12-07T17:13:11.320Z,17.45
2022-12-07T17:15:37.628Z,13.57
2022-12-07T17:18:04.106Z,11.60
2022-12-07T17:20:30.403Z,14.50
2022-12-07T17:22:56.734Z,12.45
2022-12-07T17:25:23.049Z,17.70
2022-12-07T17:27:49.394Z,10.60
2022-12-07T17:30:16.131Z,10.48
2022-12-07T17:32:42.472Z,11.02
2022-12-07T17:35:09.516Z,11.38
2022-12-07T17:37:36.005Z,13.68
2022-12-07T17:40:02.560Z,16.65
2022-12-07T17:42:29.109Z,12.80
2022-12-07T17:44:55.623Z,16.08
2022-12-07T17:47:22.145Z,16.00
2022-12-07T17:49:48.633Z,17.08
2022-12-07T17:52:15.204Z,23.83
2022-12-07T17:54:41.636Z,18.88
2022-12-07T17:57:08.408Z,16.73
2022-12-07T17:59:34.696Z,13.73
2022-12-07T18:02:01.157Z,21.15
2022-12-07T18:04:27.588Z,11.98
2022-12-07T18:06:53.881Z,13.35
2022-12-07T18:09:21.027Z,13.40
2022-12-07T18:11:47.530Z,11.70
2022-12-07T18:14:13.837Z,11.68
2022-12-07T18:16:40.682Z,14.73
2022-12-07T18:19:07.499Z,8.52
2022-12-07T18:21:33.846Z,12.10
2022-12-07T18:24:01.978Z,13.95
2022-12-07T18:26:30.503Z,15.40
2022-12-07T18:28:59.384Z,16.48
2022-12-07T18:31:25.996Z,14.50
2022-12-07T18:33:52.356Z,15.35
2022-12-07T18:36:18.652Z,13.80
2022-12-07T18:38:45.011Z,17.48
2022-12-07T18:41:13.567Z,8.52
2022-12-07T18:43:40.461Z,13.18
2022-12-07T18:46:11.169Z,13.18
2022-12-07T18:48:37.725Z,9.82
2022-12-07T18:51:06.271Z,10.93
2022-12-07T18:53:33.832Z,8.55
2022-12-07T18:56:06.364Z,10.18
2022-12-07T18:58:33.342Z,8.75
2022-12-07T19:01:00.039Z,12.45
2022-12-07T19:03:32.785Z,10.77
2022-12-07T19:06:06.175Z,10.38
2022-12-07T19:08:32.575Z,9.50
2022-12-07T19:10:58.891Z,12.10
2022-12-07T19:13:25.213Z,11.60
2022-12-07T19:15:51.517Z,12.50
2022-12-07T19:18:17.850Z,10.35
2022-12-07T19:20:44.159Z,13.75
2022-12-07T19:23:10.489Z,11.43
2022-12-07T19:25:36.832Z,12.50
2022-12-07T19:28:03.173Z,17.95
2022-12-07T19:30:29.496Z,19.77
2022-12-07T19:32:55.808Z,13.60
2022-12-07T19:35:22.128Z,15.65
2022-12-07T19:37:48.443Z,12.80
2022-12-07T19:40:14.786Z,17.52
2022-12-07T19:42:41.092Z,17.55
2022-12-07T19:45:07.699Z,18.40
2022-12-07T19:47:33.996Z,18.15
2022-12-07T19:50:00.369Z,20.27
2022-12-07T19:52:26.701Z,17.48
2022-12-07T19:54:53.059Z,20.48
2022-12-07T19:57:19.396Z,22.23
2022-12-07T19:59:45.872Z,23.17
2022-12-07T20:02:14.348Z,20.65
2022-12-07T20:04:40.689Z,22.25
2022-12-07T20:07:07.431Z,18.90
2022-12-07T20:09:33.925Z,23.45
2022-12-07T20:12:00.336Z,19.58
2022-12-07T20:14:26.762Z,21.63
2022-12-07T20:16:53.513Z,22.00
2022-12-07T20:19:20.334Z,27.00
2022-12-07T20:21:47.016Z,23.67
2022-12-07T20:24:15.986Z,28.08
2022-12-07T20:26:42.363Z,27.45
2022-12-07T20:29:16.353Z,25.27
2022-12-07T20:31:45.510Z,21.95
2022-12-07T20:34:12.167Z,31.98
2022-12-07T20:36:38.862Z,26.00
2022-12-07T20:39:06.201Z,29.48
2022-12-07T20:41:33.125Z,29.15
2022-12-07T20:44:00.636Z,25.52
2022-12-07T20:46:27.493Z,25.70
2022-12-07T20:48:54.338Z,25.95
2022-12-07T20:51:20.697Z,27.70
2022-12-07T20:53:47.050Z,27.23
2022-12-07T20:56:22.952Z,32.83
2022-12-07T20:58:49.278Z,25.63
2022-12-07T21:01:16.747Z,29.25
2022-12-07T21:03:43.083Z,22.90
2022-12-07T21:06:13.323Z,24.80
2022-12-07T21:08:43.079Z,20.42
2022-12-07T21:11:09.399Z,23.88
2022-12-07T21:13:35.769Z,21.58
2022-12-07T21:16:07.442Z,27.38
2022-12-07T21:18:33.855Z,23.90
2022-12-07T21:21:03.153Z,26.50
2022-12-07T21:23:29.492Z,24.70
2022-12-07T21:25:55.822Z,23.40
2022-12-07T21:28:22.133Z,23.77
2022-12-07T21:31:12.122Z,26.40
2022-12-07T21:33:35.442Z,23.92
2022-12-07T21:36:04.170Z,28.52
2022-12-07T21:38:30.871Z,22.55
2022-12-07T21:40:57.219Z,21.98
2022-12-07T21:43:23.887Z,23.70
2022-12-07T21:45:54.773Z,25.60
2022-12-07T21:48:21.708Z,25.55
2022-12-07T21:50:48.214Z,25.13
2022-12-07T21:53:15.581Z,24.98
2022-12-07T21:55:42.743Z,28.25
2022-12-07T21:58:09.095Z,30.83
2022-12-07T22:00:35.920Z,25.38
2022-12-07T22:03:02.979Z,23.40
2022-12-07T22:05:29.410Z,23.88
2022-12-07T22:07:55.890Z,23.83
2022-12-07T22:10:22.363Z,24.40
2022-12-07T22:12:48.674Z,24.65
2022-12-07T22:15:15.080Z,26.45
2022-12-07T22:17:41.403Z,24.05
2022-12-07T22:20:08.039Z,25.88
2022-12-07T22:22:34.374Z,27.10
2022-12-07T22:25:00.814Z,27.35
2022-12-07T22:27:27.225Z,26.75
2022-12-07T22:29:53.553Z,22.92
2022-12-07T22:32:47.059Z,24.83
2022-12-07T22:35:06.492Z,29.98
2022-12-07T22:37:33.062Z,30.10
2022-12-07T22:39:59.533Z,30.45
2022-12-07T22:42:26.003Z,29.65
2022-12-07T22:44:52.354Z,29.90
2022-12-07T22:47:18.681Z,30.08
2022-12-07T22:49:44.992Z,28.23
2022-12-07T22:52:11.324Z,28.88
2022-12-07T22:54:37.654Z,29.55
2022-12-07T22:57:03.970Z,33.97
2022-12-07T22:59:30.327Z,33.53
2022-12-07T23:01:56.643Z,30.77
2022-12-07T23:04:23.043Z,28.15
2022-12-07T23:06:49.423Z,28.98
2022-12-07T23:09:15.756Z,29.77
2022-12-07T23:11:42.739Z,31.08
2022-12-07T23:14:20.750Z,28.13
2022-12-07T23:16:47.213Z,26.17
2022-12-07T23:19:13.887Z,28.65
2022-12-07T23:21:40.573Z,31.80
2022-12-07T23:24:07.398Z,27.08
2022-12-07T23:26:33.797Z,26.08
2022-12-07T23:29:00.122Z,27.75
2022-12-07T23:31:26.640Z,26.33
2022-12-07T23:33:53.058Z,28.27
2022-12-07T23:36:24.426Z,38.45
2022-12-07T23:38:52.130Z,30.50
2022-12-07T23:41:21.608Z,25.60
2022-12-07T23:43:48.380Z,30.30
2022-12-07T23:46:18.022Z,26.92
2022-12-07T23:48:45.226Z,26.35
2022-12-07T23:51:14.016Z,24.15
2022-12-07T23:53:43.355Z,26.77
2022-12-07T23:56:19.048Z,28.02
2022-12-07T23:58:46.462Z,30.30
